Time;durP1;ratioP1;P1;durP2;ratioP2;P2;SDS_P1;SDS_P2;PMS_P1;PMS_P2;Temp;Humidity;BMP_temperature;BMP_pressure;BME280_temperature;BME280_humidity;BME280_pressure;Samples;Min_cycle;Max_cycle;Signal;HPM_P1;HPM_P2
2022/04/07 00:01:36;;;;;;;0.77;0.77;;;;;;;;;;4982285;28;20042;-58
2022/04/07 00:04:02;;;;;;;1.27;0.77;;;;;;;;;;4982607;28;20365;-58
2022/04/07 00:06:27;;;;;;;0.90;0.80;;;;;;;;;;4985873;28;20074;-58
2022/04/07 00:08:52;;;;;;;0.88;0.75;;;;;;;;;;4982920;28;20022;-58
2022/04/07 00:11:18;;;;;;;0.80;0.80;;;;;;;;;;4982370;28;20245;-59
2022/04/07 00:13:44;;;;;;;0.80;0.80;;;;;;;;;;4979597;28;20038;-59
2022/04/07 00:16:09;;;;;;;1.85;0.95;;;;;;;;;;4983463;28;20046;-59
2022/04/07 00:18:35;;;;;;;3.08;1.05;;;;;;;;;;4990227;28;20022;-59
2022/04/07 00:21:11;;;;;;;0.90;0.90;;;;;;;;;;4985807;28;20025;-59
2022/04/07 00:23:37;;;;;;;1.42;0.90;;;;;;;;;;4989566;28;20081;-58
2022/04/07 00:26:03;;;;;;;1.67;0.80;;;;;;;;;;4988298;28;20488;-59
2022/04/07 00:28:28;;;;;;;1.00;0.90;;;;;;;;;;4983900;28;20037;-59
2022/04/07 00:30:54;;;;;;;2.35;0.93;;;;;;;;;;4987829;28;20046;-59
2022/04/07 00:33:19;;;;;;;1.05;0.98;;;;;;;;;;4984196;28;20062;-59
2022/04/07 00:35:44;;;;;;;1.05;1.00;;;;;;;;;;4987565;28;20037;-58
2022/04/07 00:38:10;;;;;;;1.45;1.00;;;;;;;;;;4989089;28;20026;-58
2022/04/07 00:40:35;;;;;;;1.63;0.95;;;;;;;;;;4987131;28;20038;-58
2022/04/07 00:43:01;;;;;;;4.72;1.00;;;;;;;;;;4985426;28;20098;-58
2022/04/07 00:45:26;;;;;;;1.20;1.10;;;;;;;;;;4987538;28;20435;-58
2022/04/07 00:47:52;;;;;;;1.08;1.00;;;;;;;;;;4984901;28;20030;-60
2022/04/07 00:50:19;;;;;;;1.10;1.00;;;;;;;;;;4987345;28;20405;-58
2022/04/07 00:52:52;;;;;;;1.85;0.80;;;;;;;;;;4987653;28;20385;-57
2022/04/07 00:55:19;;;;;;;0.80;0.80;;;;;;;;;;4985120;28;20506;-59
2022/04/07 00:57:45;;;;;;;1.88;0.98;;;;;;;;;;4986090;28;20184;-58
2022/04/07 01:00:12;;;;;;;1.27;1.00;;;;;;;;;;4985436;28;20137;-59
2022/04/07 01:02:38;;;;;;;1.10;1.00;;;;;;;;;;4982656;28;20507;-58
2022/04/07 01:05:04;;;;;;;1.80;0.98;;;;;;;;;;4980367;28;20038;-58
2022/04/07 01:07:32;;;;;;;0.70;0.70;;;;;;;;;;4984852;28;20560;-59
2022/04/07 01:09:59;;;;;;;1.42;0.95;;;;;;;;;;4979924;28;20057;-59
2022/04/07 01:12:24;;;;;;;3.58;1.42;;;;;;;;;;4982143;28;20022;-59
2022/04/07 01:14:59;;;;;;;3.25;1.23;;;;;;;;;;4984815;28;20037;-60
2022/04/07 01:17:25;;;;;;;1.20;1.00;;;;;;;;;;4986170;28;20029;-59
2022/04/07 01:19:51;;;;;;;1.63;1.00;;;;;;;;;;4988375;28;20038;-58
2022/04/07 01:22:17;;;;;;;1.15;1.05;;;;;;;;;;4984116;28;20428;-58
2022/04/07 01:24:42;;;;;;;1.95;1.10;;;;;;;;;;4984069;28;20058;-58
2022/04/07 01:27:08;;;;;;;1.20;1.10;;;;;;;;;;4984165;28;20117;-58
2022/04/07 01:29:33;;;;;;;1.67;0.85;;;;;;;;;;4985356;28;20041;-58
2022/04/07 01:32:07;;;;;;;1.63;1.02;;;;;;;;;;4978480;28;20034;-58
2022/04/07 01:34:33;;;;;;;1.10;0.93;;;;;;;;;;4980567;28;20045;-58
2022/04/07 01:37:00;;;;;;;1.23;1.10;;;;;;;;;;4990002;28;20050;-58
2022/04/07 01:39:27;;;;;;;1.70;1.00;;;;;;;;;;4981418;28;20038;-58
2022/04/07 01:41:54;;;;;;;1.10;1.00;;;;;;;;;;4985014;28;20038;-58
2022/04/07 01:44:22;;;;;;;1.10;1.00;;;;;;;;;;4975840;28;20054;-59
2022/04/07 01:46:48;;;;;;;1.40;1.10;;;;;;;;;;4980858;28;20051;-58
2022/04/07 01:49:15;;;;;;;1.83;1.13;;;;;;;;;;4984380;28;20022;-58
2022/04/07 01:51:42;;;;;;;1.20;1.10;;;;;;;;;;4982088;28;20026;-59
2022/04/07 01:54:11;;;;;;;10.07;1.30;;;;;;;;;;4980618;28;20023;-58
2022/04/07 01:56:39;;;;;;;1.25;0.80;;;;;;;;;;4980896;28;20393;-58
2022/04/07 01:59:07;;;;;;;1.35;1.05;;;;;;;;;;4985742;28;20058;-57
2022/04/07 02:01:32;;;;;;;1.33;1.08;;;;;;;;;;4978861;28;20467;-58
2022/04/07 02:03:58;;;;;;;1.10;0.82;;;;;;;;;;4982737;28;20092;-58
2022/04/07 02:06:25;;;;;;;1.42;1.00;;;;;;;;;;4986209;28;20033;-58
2022/04/07 02:08:50;;;;;;;1.20;1.00;;;;;;;;;;4979920;28;20061;-58
2022/04/07 02:11:16;;;;;;;1.25;1.15;;;;;;;;;;4980746;28;20488;-58
2022/04/07 02:13:42;;;;;;;1.30;1.20;;;;;;;;;;4977996;28;20049;-58
2022/04/07 02:16:09;;;;;;;1.10;1.00;;;;;;;;;;4989031;28;20061;-58
2022/04/07 02:18:35;;;;;;;2.40;1.27;;;;;;;;;;4982899;28;20079;-58
2022/04/07 02:21:01;;;;;;;1.50;1.00;;;;;;;;;;4978002;28;20122;-59
2022/04/07 02:23:27;;;;;;;1.30;1.20;;;;;;;;;;4985127;28;20445;-58
2022/04/07 02:25:53;;;;;;;2.25;1.23;;;;;;;;;;4977304;28;20080;-57
2022/04/07 02:28:18;;;;;;;0.90;0.90;;;;;;;;;;4981815;28;20036;-58
2022/04/07 02:30:45;;;;;;;1.75;1.10;;;;;;;;;;4980507;28;20406;-58
2022/04/07 02:33:11;;;;;;;1.10;0.80;;;;;;;;;;4980201;28;20118;-58
2022/04/07 02:35:36;;;;;;;1.30;0.82;;;;;;;;;;4984830;28;20186;-57
2022/04/07 02:38:01;;;;;;;1.80;1.20;;;;;;;;;;4983191;28;20041;-58
2022/04/07 02:40:27;;;;;;;0.90;0.80;;;;;;;;;;4986383;28;20506;-58
2022/04/07 02:42:52;;;;;;;1.25;1.00;;;;;;;;;;4982484;28;20034;-58
2022/04/07 02:45:18;;;;;;;1.20;1.05;;;;;;;;;;4979268;28;20637;-58
2022/04/07 02:47:43;;;;;;;1.10;1.00;;;;;;;;;;4977753;28;20022;-59
2022/04/07 02:50:09;;;;;;;2.20;1.40;;;;;;;;;;4980912;28;20049;-58
2022/04/07 02:52:35;;;;;;;0.82;0.73;;;;;;;;;;4979968;28;20066;-58
2022/04/07 02:55:01;;;;;;;1.67;0.95;;;;;;;;;;4977563;28;20052;-57
2022/04/07 02:57:30;;;;;;;0.93;0.82;;;;;;;;;;4972134;28;20035;-59
2022/04/07 02:59:56;;;;;;;;;;;;;;;;;;4973786;28;20081;-58
2022/04/07 03:02:21;;;;;;;;;;;;;;;;;;4997514;28;19917;-59
2022/04/07 03:04:47;;;;;;;;;;;;;;;;;;4978791;28;19918;-57
2022/04/07 03:07:13;;;;;;;;;;;;;;;;;;4984134;28;20094;-57
2022/04/07 03:09:40;;;;;;;;;;;;;;;;;;4982226;28;20546;-58
2022/04/07 03:12:05;;;;;;;;;;;;;;;;;;4975860;28;20331;-58
2022/04/07 03:14:30;;;;;;;;;;;;;;;;;;4977357;28;19969;-58
2022/04/07 03:16:57;;;;;;;;;;;;;;;;;;4987920;28;19968;-58
2022/04/07 03:19:22;;;;;;;;;;;;;;;;;;4980459;28;20719;-58
2022/04/07 03:21:47;;;;;;;;;;;;;;;;;;4980802;28;20001;-58
2022/04/07 03:24:13;;;;;;;;;;;;;;;;;;4989029;28;19920;-58
2022/04/07 03:26:38;;;;;;;;;;;;;;;;;;4987721;28;19922;-59
2022/04/07 03:29:03;;;;;;;;;;;;;;;;;;4990723;28;20299;-58
2022/04/07 03:31:29;;;;;;;;;;;;;;;;;;4989313;28;20364;-58
2022/04/07 03:33:54;;;;;;;;;;;;;;;;;;4985579;28;19921;-58
2022/04/07 03:36:19;;;;;;;;;;;;;;;;;;4989108;28;19932;-58
2022/04/07 03:38:45;;;;;;;;;;;;;;;;;;4987962;28;19924;-58
2022/04/07 03:41:11;;;;;;;;;;;;;;;;;;4985066;28;19973;-58
2022/04/07 03:43:36;;;;;;;;;;;;;;;;;;4984926;28;20387;-58
2022/04/07 03:46:02;;;;;;;;;;;;;;;;;;4982983;28;20035;-58
2022/04/07 03:48:27;;;;;;;;;;;;;;;;;;4976843;28;19925;-59
2022/04/07 03:50:52;;;;;;;;;;;;;;;;;;4986176;28;19960;-58
2022/04/07 03:53:18;;;;;;;;;;;;;;;;;;4988271;28;20423;-57
2022/04/07 03:55:44;;;;;;;;;;;;;;;;;;4982937;28;19929;-58
2022/04/07 03:58:10;;;;;;;;;;;;;;;;;;4982000;28;19926;-58
2022/04/07 04:00:35;;;;;;;;;;;;;;;;;;4985143;28;19913;-57
2022/04/07 04:03:00;;;;;;;;;;;;;;;;;;4984176;28;19913;-58
2022/04/07 04:05:25;;;;;;;;;;;;;;;;;;4976038;28;19992;-58
2022/04/07 04:07:51;;;;;;;;;;;;;;;;;;4985411;28;20000;-58
2022/04/07 04:10:17;;;;;;;;;;;;;;;;;;4981222;28;19922;-58
2022/04/07 04:12:42;;;;;;;;;;;;;;;;;;4977955;28;19918;-58
2022/04/07 04:15:08;;;;;;;;;;;;;;;;;;4980414;28;20287;-60
2022/04/07 04:17:33;;;;;;;;;;;;;;;;;;4986977;28;20013;-57
2022/04/07 04:19:59;;;;;;;;;;;;;;;;;;4988533;28;19956;-58
2022/04/07 04:22:24;;;;;;;;;;;;;;;;;;4988357;28;19957;-59
2022/04/07 04:24:50;;;;;;;;;;;;;;;;;;4988450;28;19922;-58
2022/04/07 04:27:15;;;;;;;;;;;;;;;;;;4988475;28;19968;-59
2022/04/07 04:29:42;;;;;;;;;;;;;;;;;;4979446;28;19984;-58
2022/04/07 04:32:09;;;;;;;;;;;;;;;;;;4982909;28;19918;-58
2022/04/07 04:34:34;;;;;;;;;;;;;;;;;;4982769;28;19920;-58
2022/04/07 04:36:59;;;;;;;;;;;;;;;;;;4987412;28;19922;-60
2022/04/07 04:39:25;;;;;;;;;;;;;;;;;;4990190;28;20393;-60
2022/04/07 04:41:50;;;;;;;;;;;;;;;;;;4986995;28;19970;-60
2022/04/07 04:44:15;;;;;;;;;;;;;;;;;;4984875;28;19924;-60
2022/04/07 04:46:41;;;;;;;;;;;;;;;;;;4993388;28;19917;-60
2022/04/07 04:49:06;;;;;;;;;;;;;;;;;;4984796;28;19914;-60
2022/04/07 04:51:31;;;;;;;;;;;;;;;;;;4976383;28;19914;-60
2022/04/07 04:53:56;;;;;;;;;;;;;;;;;;4975332;28;19984;-60
2022/04/07 04:56:22;;;;;;;;;;;;;;;;;;4983127;28;19915;-59
2022/04/07 04:58:48;;;;;;;;;;;;;;;;;;4978243;28;20390;-59
2022/04/07 05:01:13;;;;;;;;;;;;;;;;;;4983078;28;20008;-60
2022/04/07 05:03:38;;;;;;;;;;;;;;;;;;4987122;28;19933;-59
2022/04/07 05:06:04;;;;;;;;;;;;;;;;;;4980252;28;20307;-60
2022/04/07 05:08:29;;;;;;;;;;;;;;;;;;4987243;28;19913;-60
2022/04/07 05:10:54;;;;;;;;;;;;;;;;;;4986203;28;20379;-62
2022/04/07 05:13:22;;;;;;;;;;;;;;;;;;4982324;28;19920;-60
2022/04/07 05:15:47;;;;;;;;;;;;;;;;;;4980417;28;19914;-60
2022/04/07 05:18:13;;;;;;;;;;;;;;;;;;4986836;28;19918;-59
2022/04/07 05:20:38;;;;;;;;;;;;;;;;;;4984869;28;19923;-60
2022/04/07 05:23:03;;;;;;;;;;;;;;;;;;4976635;28;19914;-59
2022/04/07 05:25:29;;;;;;;;;;;;;;;;;;4989411;28;19941;-60
2022/04/07 05:27:54;;;;;;;;;;;;;;;;;;4987769;28;20008;-60
2022/04/07 05:30:19;;;;;;;;;;;;;;;;;;4981773;28;20393;-62
2022/04/07 05:32:45;;;;;;;;;;;;;;;;;;4991093;28;19924;-60
2022/04/07 05:35:11;;;;;;;;;;;;;;;;;;4981066;28;19914;-60
2022/04/07 05:37:36;;;;;;;;;;;;;;;;;;4989457;28;19929;-60
2022/04/07 05:40:02;;;;;;;;;;;;;;;;;;4985032;28;19925;-60
2022/04/07 05:42:27;;;;;;;;;;;;;;;;;;4984136;28;19914;-60
2022/04/07 05:44:53;;;;;;;;;;;;;;;;;;4984330;28;19918;-60
2022/04/07 05:47:18;;;;;;;;;;;;;;;;;;4989253;28;19914;-61
2022/04/07 05:49:43;;;;;;;;;;;;;;;;;;4980396;28;19913;-60
2022/04/07 05:52:09;;;;;;;;;;;;;;;;;;4984659;28;19993;-60
2022/04/07 05:54:35;;;;;;;;;;;;;;;;;;4979811;28;20288;-60
2022/04/07 05:57:00;;;;;;;;;;;;;;;;;;4978505;28;19918;-59
2022/04/07 05:59:26;;;;;;;;;;;;;;;;;;4982150;28;20303;-60
2022/04/07 06:01:51;;;;;;;;;;;;;;;;;;4980585;28;19914;-60
2022/04/07 06:04:16;;;;;;;;;;;;;;;;;;4983901;28;19969;-60
2022/04/07 06:06:42;;;;;;;;;;;;;;;;;;4986815;28;20289;-60
2022/04/07 06:09:07;;;;;;;;;;;;;;;;;;4980553;28;20352;-60
2022/04/07 06:11:33;;;;;;;;;;;;;;;;;;4989052;28;20385;-60
2022/04/07 06:13:58;;;;;;;;;;;;;;;;;;4979387;28;19924;-60
2022/04/07 06:16:23;;;;;;;;;;;;;;;;;;4983639;28;19920;-60
2022/04/07 06:18:49;;;;;;;;;;;;;;;;;;4980128;28;19933;-59
2022/04/07 06:21:14;;;;;;;;;;;;;;;;;;4983294;28;19914;-60
2022/04/07 06:23:40;;;;;;;;;;;;;;;;;;4985977;28;20371;-59
2022/04/07 06:26:06;;;;;;;;;;;;;;;;;;4983433;28;19929;-60
2022/04/07 06:28:31;;;;;;;;;;;;;;;;;;4985223;28;20376;-60
2022/04/07 06:30:57;;;;;;;;;;;;;;;;;;4977808;28;19932;-60
2022/04/07 06:33:22;;;;;;;;;;;;;;;;;;4980141;28;20309;-60
2022/04/07 06:35:51;;;;;;;;;;;;;;;;;;4980917;28;20360;-60
2022/04/07 06:38:16;;;;;;;;;;;;;;;;;;4980210;28;20004;-60
2022/04/07 06:40:41;;;;;;;;;;;;;;;;;;4980005;28;20064;-60
2022/04/07 06:43:07;;;;;;;;;;;;;;;;;;4977144;28;19930;-59
2022/04/07 06:45:32;;;;;;;;;;;;;;;;;;4987155;28;19925;-60
2022/04/07 06:47:58;;;;;;;;;;;;;;;;;;4986329;28;20260;-60
2022/04/07 06:50:25;;;;;;;;;;;;;;;;;;4984385;28;19941;-61
2022/04/07 06:52:51;;;;;;;;;;;;;;;;;;4986677;28;19972;-60
2022/04/07 06:55:16;;;;;;;;;;;;;;;;;;4987050;28;19918;-60
2022/04/07 06:57:52;;;;;;;;;;;;;;;;;;4983495;28;19914;-60
2022/04/07 07:00:18;;;;;;;;;;;;;;;;;;4977854;28;19996;-59
2022/04/07 07:02:45;;;;;;;;;;;;;;;;;;4989174;28;19914;-60
2022/04/07 07:05:10;;;;;;;;;;;;;;;;;;4982417;28;19921;-60
2022/04/07 07:07:35;;;;;;;;;;;;;;;;;;4985435;28;20432;-60
2022/04/07 07:10:00;;;;;;;;;;;;;;;;;;4984631;28;20020;-60
2022/04/07 07:12:26;;;;;;;;;;;;;;;;;;4987154;28;20012;-60
2022/04/07 07:14:52;;;;;;;;;;;;;;;;;;4985143;28;19980;-60
2022/04/07 07:17:17;;;;;;;;;;;;;;;;;;4989405;28;19936;-60
2022/04/07 07:19:42;;;;;;;;;;;;;;;;;;4985753;28;20359;-60
2022/04/07 07:22:08;;;;;;;;;;;;;;;;;;4988584;28;19917;-59
2022/04/07 07:24:33;;;;;;;;;;;;;;;;;;4987362;28;20295;-60
2022/04/07 07:26:58;;;;;;;;;;;;;;;;;;4988377;28;19921;-60
2022/04/07 07:29:24;;;;;;;;;;;;;;;;;;4981058;28;19921;-60
2022/04/07 07:31:49;;;;;;;;;;;;;;;;;;4988418;28;19910;-60
2022/04/07 07:34:14;;;;;;;;;;;;;;;;;;4987095;28;20353;-59
2022/04/07 07:36:39;;;;;;;;;;;;;;;;;;4989187;28;19917;-60
2022/04/07 07:39:05;;;;;;;;;;;;;;;;;;4989793;28;19933;-61
2022/04/07 07:41:30;;;;;;;;;;;;;;;;;;4987344;28;19935;-60
2022/04/07 07:43:55;;;;;;;;;;;;;;;;;;4989668;28;19941;-60
2022/04/07 07:46:21;;;;;;;;;;;;;;;;;;4988415;28;19940;-59
2022/04/07 07:48:46;;;;;;;;;;;;;;;;;;4988740;28;20398;-61
2022/04/07 07:51:11;;;;;;;;;;;;;;;;;;4987267;28;19914;-60
2022/04/07 07:53:37;;;;;;;;;;;;;;;;;;4985518;28;19918;-59
2022/04/07 07:56:02;;;;;;;;;;;;;;;;;;4984928;28;19913;-60
2022/04/07 07:58:28;;;;;;;;;;;;;;;;;;4981875;28;20375;-59
2022/04/07 08:00:54;;;;;;;;;;;;;;;;;;4983466;28;20368;-59
2022/04/07 08:03:20;;;;;;;;;;;;;;;;;;4983086;28;20000;-59
2022/04/07 08:05:45;;;;;;;;;;;;;;;;;;4974421;28;20020;-59
2022/04/07 08:08:11;;;;;;;;;;;;;;;;;;4988032;28;20279;-61
2022/04/07 08:10:37;;;;;;;;;;;;;;;;;;4991224;28;19921;-60
2022/04/07 08:13:02;;;;;;;;;;;;;;;;;;4983641;28;20008;-60
2022/04/07 08:15:27;;;;;;;;;;;;;;;;;;4987240;28;19921;-60
2022/04/07 08:17:53;;;;;;;;;;;;;;;;;;4991027;28;19967;-60
2022/04/07 08:20:18;;;;;;;;;;;;;;;;;;4982995;28;20134;-60
2022/04/07 08:22:43;;;;;;;;;;;;;;;;;;4986599;28;20418;-60
2022/04/07 08:25:09;;;;;;;;;;;;;;;;;;4986472;28;19917;-60
2022/04/07 08:27:34;;;;;;;;;;;;;;;;;;4983759;28;19985;-60
2022/04/07 08:30:00;;;;;;;;;;;;;;;;;;4986105;28;19920;-60
2022/04/07 08:32:25;;;;;;;;;;;;;;;;;;4980662;28;19914;-60
2022/04/07 08:34:50;;;;;;;;;;;;;;;;;;4982356;28;19914;-60
2022/04/07 08:37:15;;;;;;;;;;;;;;;;;;4990241;28;19913;-60
2022/04/07 08:39:41;;;;;;;;;;;;;;;;;;4986699;28;20523;-61
2022/04/07 08:42:06;;;;;;;;;;;;;;;;;;4978004;28;20000;-61
2022/04/07 08:44:32;;;;;;;;;;;;;;;;;;4991697;28;19913;-61
2022/04/07 08:46:57;;;;;;;;;;;;;;;;;;4989369;28;20301;-61
2022/04/07 08:49:23;;;;;;;;;;;;;;;;;;4982776;28;20304;-60
2022/04/07 08:51:50;;;;;;;;;;;;;;;;;;4991019;28;20009;-61
2022/04/07 08:54:15;;;;;;;;;;;;;;;;;;4987376;28;20434;-60
2022/04/07 08:56:40;;;;;;;;;;;;;;;;;;4982027;28;19913;-61
2022/04/07 08:59:06;;;;;;;;;;;;;;;;;;4985613;28;20286;-61
2022/04/07 09:01:31;;;;;;;;;;;;;;;;;;4981231;28;19918;-61
2022/04/07 09:03:57;;;;;;;;;;;;;;;;;;4991295;28;19918;-61
2022/04/07 09:06:23;;;;;;;;;;;;;;;;;;4989837;28;20016;-61
2022/04/07 09:08:49;;;;;;;;;;;;;;;;;;4987073;28;19967;-60
2022/04/07 09:11:16;;;;;;;;;;;;;;;;;;4987973;28;20008;-61
2022/04/07 09:13:42;;;;;;;;;;;;;;;;;;4990757;28;19940;-60
2022/04/07 09:16:12;;;;;;;;;;;;;;;;;;4985018;28;19914;-60
2022/04/07 09:18:39;;;;;;;;;;;;;;;;;;4988753;28;19917;-61
2022/04/07 09:21:05;;;;;;;;;;;;;;;;;;4982741;28;19925;-61
2022/04/07 09:23:37;;;;;;;;;;;;;;;;;;4991331;28;19913;-61
2022/04/07 09:26:03;;;;;;;;;;;;;;;;;;4989113;28;19924;-61
2022/04/07 09:28:29;;;;;;;;;;;;;;;;;;4990093;28;20402;-61
2022/04/07 09:30:58;;;;;;;;;;;;;;;;;;4981095;28;19926;-61
2022/04/07 09:33:24;;;;;;;;;;;;;;;;;;4989046;28;19913;-61
2022/04/07 09:36:10;;;;;;;;;;;;;;;;;;4982888;28;19972;-60
2022/04/07 09:38:36;;;;;;;;;;;;;;;;;;5003200;28;19920;-61
2022/04/07 09:41:02;;;;;;;;;;;;;;;;;;4982734;28;19956;-61
2022/04/07 09:43:27;;;;;;;;;;;;;;;;;;4987313;28;19914;-61
2022/04/07 09:45:53;;;;;;;;;;;;;;;;;;4979869;28;19925;-61
2022/04/07 09:48:18;;;;;;;;;;;;;;;;;;4989385;28;19953;-61
2022/04/07 09:51:01;;;;;;;;;;;;;;;;;;4981089;28;19917;-61
2022/04/07 09:53:29;;;;;;;;;;;;;;;;;;4979782;28;19992;-60
2022/04/07 09:55:55;;;;;;;;;;;;;;;;;;4986129;28;19913;-59
2022/04/07 09:58:21;;;;;;;;;;;;;;;;;;4972991;28;19922;-60
2022/04/07 10:00:46;;;;;;;;;;;;;;;;;;4976152;28;19918;-59
2022/04/07 10:03:13;;;;;;;;;;;;;;;;;;4987760;28;20294;-59
2022/04/07 10:05:39;;;;;;;;;;;;;;;;;;4989215;28;20442;-61
2022/04/07 10:08:04;;;;;;;;;;;;;;;;;;4987357;28;19909;-60
2022/04/07 10:10:30;;;;;;;;;;;;;;;;;;4982919;28;19913;-59
2022/04/07 10:13:01;;;;;;;;;;;;;;;;;;4983489;28;20012;-60
2022/04/07 10:15:26;;;;;;;;;;;;;;;;;;4979228;28;19918;-61
2022/04/07 10:17:52;;;;;;;;;;;;;;;;;;4976768;28;19976;-61
2022/04/07 10:20:18;;;;;;;;;;;;;;;;;;4975014;28;19920;-61
2022/04/07 10:23:00;;;;;;;;;;;;;;;;;;4982103;28;19917;-61
2022/04/07 10:25:26;;;;;;;;;;;;;;;;;;4989405;28;20198;-61
2022/04/07 10:27:54;;;;;;;;;;;;;;;;;;4975920;28;19972;-61
2022/04/07 10:30:21;;;;;;;;;;;;;;;;;;4982974;28;20331;-60
2022/04/07 10:32:50;;;;;;;;;;;;;;;;;;4979798;28;20466;-60
2022/04/07 10:35:32;;;;;;;;;;;;;;;;;;4981517;28;19984;-60
2022/04/07 10:37:59;;;;;;;;;;;;;;;;;;4984942;28;19960;-60
2022/04/07 10:40:45;;;;;;;;;;;;;;;;;;4981749;28;19914;-63
2022/04/07 10:43:17;;;;;;;;;;;;;;;;;;4985392;28;20388;-61
2022/04/07 10:45:50;;;;;;;;;;;;;;;;;;4980298;28;19965;-62
2022/04/07 10:48:19;;;;;;;;;;;;;;;;;;4981542;28;19910;-60
2022/04/07 10:50:51;;;;;;;;;;;;;;;;;;4980135;28;20287;-60
2022/04/07 10:53:26;;;;;;;;;;;;;;;;;;4976961;28;19918;-60
2022/04/07 10:56:11;;;;;;;;;;;;;;;;;;4984858;28;19929;-60
2022/04/07 10:58:39;;;;;;;;;;;;;;;;;;4981597;28;20294;-61
2022/04/07 11:01:04;;;;;;;;;;;;;;;;;;4979932;28;19948;-60
2022/04/07 11:03:30;;;;;;;;;;;;;;;;;;4975974;28;19949;-60
2022/04/07 11:06:18;;;;;;;;;;;;;;;;;;4983887;28;19992;-60
2022/04/07 11:08:43;;;;;;;;;;;;;;;;;;4983707;28;20469;-60
2022/04/07 11:11:09;;;;;;;;;;;;;;;;;;4985188;28;19949;-60
2022/04/07 11:13:41;;;;;;;;;;;;;;;;;;4983501;28;20061;-60
2022/04/07 11:16:28;;;;;;;;;;;;;;;;;;4984920;28;19922;-60
2022/04/07 11:19:08;;;;;;;;;;;;;;;;;;4984131;28;20338;-61
2022/04/07 11:22:03;;;;;;;;;;;;;;;;;;4980776;28;19992;-63
2022/04/07 11:24:31;;;;;;;;;;;;;;;;;;4972240;28;20036;-60
2022/04/07 11:27:16;;;;;;;;;;;;;;;;;;4986615;28;19929;-60
2022/04/07 11:29:41;;;;;;;;;;;;;;;;;;4978365;28;19918;-60
2022/04/07 11:32:07;;;;;;;;;;;;;;;;;;4983654;28;19921;-60
2022/04/07 11:34:36;;;;;;;;;;;;;;;;;;4979105;28;19940;-63
2022/04/07 11:37:07;;;;;;;;;;;;;;;;;;4984706;28;20044;-60
2022/04/07 11:39:33;;;;;;;;;;;;;;;;;;4979205;28;20299;-60
2022/04/07 11:41:59;;;;;;;;;;;;;;;;;;4979449;28;19913;-60
2022/04/07 11:44:25;;;;;;;;;;;;;;;;;;4989399;28;19921;-60
2022/04/07 11:46:51;;;;;;;;;;;;;;;;;;4988450;28;19917;-59
2022/04/07 11:49:16;;;;;;;;;;;;;;;;;;4990876;28;20534;-60
2022/04/07 11:51:44;;;;;;;;;;;;;;;;;;4976414;28;19914;-60
2022/04/07 11:54:09;;;;;;;;;;;;;;;;;;4985315;28;20481;-60
2022/04/07 11:56:38;;;;;;;;;;;;;;;;;;4991412;28;19976;-60
2022/04/07 11:59:05;;;;;;;;;;;;;;;;;;4983223;28;19913;-60
2022/04/07 12:01:31;;;;;;;;;;;;;;;;;;4981091;28;19977;-60
2022/04/07 12:03:57;;;;;;;;;;;;;;;;;;4985688;28;19918;-60
2022/04/07 12:06:23;;;;;;;;;;;;;;;;;;4983599;28;19918;-60
2022/04/07 12:08:49;;;;;;;;;;;;;;;;;;4986779;28;19932;-60
2022/04/07 12:11:14;;;;;;;;;;;;;;;;;;4989062;28;19918;-60
2022/04/07 12:13:40;;;;;;;;;;;;;;;;;;4991728;28;19922;-61
2022/04/07 12:16:08;;;;;;;;;;;;;;;;;;4985784;28;19925;-60
2022/04/07 12:18:34;;;;;;;;;;;;;;;;;;4988106;28;19956;-60
2022/04/07 12:21:00;;;;;;;;;;;;;;;;;;4977648;28;20037;-60
2022/04/07 12:23:26;;;;;;;;;;;;;;;;;;4983661;28;19914;-60
2022/04/07 12:25:56;;;;;;;;;;;;;;;;;;4984798;28;20295;-60
2022/04/07 12:28:22;;;;;;;;;;;;;;;;;;4984526;28;19920;-60
2022/04/07 12:30:49;;;;;;;;;;;;;;;;;;4980039;28;19917;-60
2022/04/07 12:33:33;;;;;;;;;;;;;;;;;;4989941;28;19964;-60
2022/04/07 12:35:58;;;;;;;;;;;;;;;;;;4984511;28;20442;-60
2022/04/07 12:38:23;;;;;;;;;;;;;;;;;;4987878;28;19914;-60
2022/04/07 12:40:49;;;;;;;;;;;;;;;;;;4984762;28;19916;-60
2022/04/07 12:43:15;;;;;;;;;;;;;;;;;;4986875;28;19914;-60
2022/04/07 12:45:59;;;;;;;;;;;;;;;;;;4986860;28;20198;-60
2022/04/07 12:48:24;;;;;;;;;;;;;;;;;;4991384;28;19980;-60
2022/04/07 12:50:50;;;;;;;;;;;;;;;;;;4980824;28;20360;-60
2022/04/07 12:53:34;;;;;;;;;;;;;;;;;;4986215;28;19913;-60
2022/04/07 12:56:02;;;;;;;;;;;;;;;;;;4984123;28;19975;-61
2022/04/07 12:58:29;;;;;;;;;;;;;;;;;;4991877;28;19909;-60
2022/04/07 13:00:57;;;;;;;;;;;;;;;;;;4990014;28;19921;-60
2022/04/07 13:03:28;;;;;;;;;;;;;;;;;;4991386;28;19921;-60
2022/04/07 13:05:53;;;;;;;;;;;;;;;;;;4990767;28;20272;-61
2022/04/07 13:08:18;;;;;;;;;;;;;;;;;;4991667;28;19917;-60
2022/04/07 13:10:44;;;;;;;;;;;;;;;;;;4987424;28;19917;-61
2022/04/07 13:13:10;;;;;;;;;;;;;;;;;;4990970;28;20254;-60
2022/04/07 13:15:35;;;;;;;;;;;;;;;;;;4991517;28;19910;-60
2022/04/07 13:18:02;;;;;;;;;;;;;;;;;;4990698;28;19924;-60
2022/04/07 13:20:28;;;;;;;;;;;;;;;;;;4988825;28;19917;-61
2022/04/07 13:22:54;;;;;;;;;;;;;;;;;;4991734;28;19963;-60
2022/04/07 13:25:19;;;;;;;;;;;;;;;;;;4990617;28;20350;-60
2022/04/07 13:27:45;;;;;;;;;;;;;;;;;;4991417;28;19913;-60
2022/04/07 13:30:10;;;;;;;;;;;;;;;;;;4989936;28;19922;-60
2022/04/07 13:32:36;;;;;;;;;;;;;;;;;;4991247;28;19909;-60
2022/04/07 13:35:01;;;;;;;;;;;;;;;;;;4984770;28;20350;-61
2022/04/07 13:37:26;;;;;;;;;;;;;;;;;;4986510;28;20276;-60
2022/04/07 13:39:52;;;;;;;;;;;;;;;;;;4989934;28;19913;-60
2022/04/07 13:42:18;;;;;;;;;;;;;;;;;;4985122;28;19918;-60
2022/04/07 13:44:43;;;;;;;;;;;;;;;;;;4987949;28;19924;-60
2022/04/07 13:47:09;;;;;;;;;;;;;;;;;;4989252;28;19960;-60
2022/04/07 13:49:34;;;;;;;;;;;;;;;;;;4980505;28;20342;-60
2022/04/07 13:52:00;;;;;;;;;;;;;;;;;;4979326;28;19914;-60
2022/04/07 13:54:28;;;;;;;;;;;;;;;;;;4985091;28;19936;-60
2022/04/07 13:56:54;;;;;;;;;;;;;;;;;;4984513;28;19910;-60
2022/04/07 13:59:19;;;;;;;;;;;;;;;;;;4989906;28;19920;-60
2022/04/07 14:01:45;;;;;;;;;;;;;;;;;;4978122;28;20296;-60
2022/04/07 14:04:10;;;;;;;;;;;;;;;;;;4984065;28;19941;-60
2022/04/07 14:06:35;;;;;;;;;;;;;;;;;;4988628;28;19914;-60
2022/04/07 14:09:01;;;;;;;;;;;;;;;;;;4986970;28;19909;-60
2022/04/07 14:11:26;;;;;;;;;;;;;;;;;;4987267;28;19913;-60
2022/04/07 14:13:52;;;;;;;;;;;;;;;;;;4990270;28;19953;-60
2022/04/07 14:16:18;;;;;;;;;;;;;;;;;;4986166;28;19910;-60
2022/04/07 14:18:43;;;;;;;;;;;;;;;;;;4989080;28;20394;-60
2022/04/07 14:21:11;;;;;;;;;;;;;;;;;;5001310;28;20437;-60
2022/04/07 14:23:36;;;;;;;;;;;;;;;;;;4990507;28;19918;-60
2022/04/07 14:26:01;;;;;;;;;;;;;;;;;;4985761;28;19968;-60
2022/04/07 14:28:27;;;;;;;;;;;;;;;;;;4990440;28;19960;-60
2022/04/07 14:30:52;;;;;;;;;;;;;;;;;;4989454;28;19910;-60
2022/04/07 14:33:20;;;;;;;;;;;;;;;;;;4990002;28;20375;-60
2022/04/07 14:35:46;;;;;;;;;;;;;;;;;;4989817;28;19920;-60
2022/04/07 14:38:12;;;;;;;;;;;;;;;;;;4990214;28;20302;-60
2022/04/07 14:40:39;;;;;;;;;;;;;;;;;;4988671;28;20343;-60
2022/04/07 14:43:05;;;;;;;;;;;;;;;;;;4989695;28;19914;-60
2022/04/07 14:45:30;;;;;;;;;;;;;;;;;;4979763;28;19967;-60
2022/04/07 14:47:55;;;;;;;;;;;;;;;;;;4972836;28;19918;-60
2022/04/07 14:50:23;;;;;;;;;;;;;;;;;;4987520;28;19917;-60
2022/04/07 14:52:48;;;;;;;;;;;;;;;;;;4976687;28;19913;-60
2022/04/07 14:55:13;;;;;;;;;;;;;;;;;;4973973;28;20005;-60
2022/04/07 14:57:39;;;;;;;;;;;;;;;;;;4985840;28;19920;-60
2022/04/07 15:00:04;;;;;;;;;;;;;;;;;;4981635;28;19941;-60
2022/04/07 15:02:30;;;;;;;;;;;;;;;;;;4980882;28;19922;-60
2022/04/07 15:04:55;;;;;;;;;;;;;;;;;;4977131;28;19917;-56
2022/04/07 15:07:20;;;;;;;;;;;;;;;;;;4981192;28;20532;-60
2022/04/07 15:09:46;;;;;;;;;;;;;;;;;;4979009;28;19918;-60
2022/04/07 15:12:11;;;;;;;;;;;;;;;;;;4979221;28;20355;-60
2022/04/07 15:14:39;;;;;;;;;;;;;;;;;;4984139;28;19957;-60
2022/04/07 15:17:08;;;;;;;;;;;;;;;;;;4983683;28;20012;-60
2022/04/07 15:19:34;;;;;;;;;;;;;;;;;;4989188;28;19960;-60
2022/04/07 15:21:59;;;;;;;;;;;;;;;;;;4985716;28;20360;-60
2022/04/07 15:24:25;;;;;;;;;;;;;;;;;;4984068;28;19956;-60
2022/04/07 15:26:50;;;;;;;;;;;;;;;;;;4983149;28;19928;-60
2022/04/07 15:29:15;;;;;;;;;;;;;;;;;;4981369;28;20371;-60
2022/04/07 15:31:40;;;;;;;;;;;;;;;;;;4982332;28;20012;-60
2022/04/07 15:34:06;;;;;;;;;;;;;;;;;;4977516;28;20334;-60
2022/04/07 15:36:32;;;;;;;;;;;;;;;;;;4983743;28;19944;-60
2022/04/07 15:38:57;;;;;;;;;;;;;;;;;;4989506;28;19934;-60
2022/04/07 15:41:23;;;;;;;;;;;;;;;;;;4982464;28;19914;-60
2022/04/07 15:43:49;;;;;;;;;;;;;;;;;;4975954;28;19943;-61
2022/04/07 15:46:14;;;;;;;;;;;;;;;;;;4984845;28;20052;-61
2022/04/07 15:48:39;;;;;;;;;;;;;;;;;;4987729;28;20399;-61
2022/04/07 15:51:05;;;;;;;;;;;;;;;;;;4975219;28;19914;-61
2022/04/07 15:53:30;;;;;;;;;;;;;;;;;;4984968;28;19918;-61
2022/04/07 15:55:57;;;;;;;;;;;;;;;;;;4985355;28;20548;-60
2022/04/07 15:58:22;;;;;;;;;;;;;;;;;;4982160;28;19913;-60
2022/04/07 16:00:48;;;;;;;;;;;;;;;;;;4985844;28;19914;-61
2022/04/07 16:03:14;;;;;;;;;;;;;;;;;;4979972;28;20318;-61
2022/04/07 16:05:39;;;;;;;;;;;;;;;;;;4984680;28;19918;-61
2022/04/07 16:08:05;;;;;;;;;;;;;;;;;;4987900;28;20413;-61
2022/04/07 16:10:30;;;;;;;;;;;;;;;;;;4991329;28;20431;-61
2022/04/07 16:12:56;;;;;;;;;;;;;;;;;;4986118;28;19914;-60
2022/04/07 16:15:22;;;;;;;;;;;;;;;;;;4988488;28;20021;-61
2022/04/07 16:17:47;;;;;;;;;;;;;;;;;;4986272;28;20008;-60